createdAt,value
2023-04-11T00:00:30.058Z,100902.47
2023-04-11T00:03:02.034Z,100900.22
2023-04-11T00:05:31.254Z,100913.28
2023-04-11T00:07:57.691Z,100899.72
2023-04-11T00:10:24.508Z,100909.22
2023-04-11T00:12:51.037Z,100904.38
2023-04-11T00:15:17.572Z,100911.66
2023-04-11T00:17:45.505Z,100911.16
2023-04-11T00:20:13.056Z,100904.22
2023-04-11T00:22:39.675Z,100900.84
2023-04-11T00:25:07.065Z,100902.63
2023-04-11T00:27:33.589Z,100899.53
2023-04-11T00:30:00.779Z,100894.88
2023-04-11T00:32:27.857Z,100899.06
2023-04-11T00:34:55.308Z,100901.94
2023-04-11T00:37:22.158Z,100907.78
2023-04-11T00:39:55.692Z,100913.91
2023-04-11T00:42:22.228Z,100903.25
2023-04-11T00:44:48.870Z,100909.22
2023-04-11T00:47:15.610Z,100902.78
2023-04-11T00:49:42.327Z,100919.25
2023-04-11T00:52:09.365Z,100906.47
2023-04-11T00:54:35.964Z,100920.19
2023-04-11T00:57:04.298Z,100919.25
2023-04-11T00:59:32.298Z,100901.94
2023-04-11T01:01:59.849Z,100917.97
2023-04-11T01:04:26.374Z,100910.06
2023-04-11T01:07:03.894Z,100913.59
2023-04-11T01:09:33.380Z,100917.66
2023-04-11T01:12:01.489Z,100914.94
2023-04-11T01:14:28.644Z,100919.59
2023-04-11T01:16:56.685Z,100910.56
2023-04-11T01:19:26.246Z,100915.25
2023-04-11T01:21:53.900Z,100916.06
2023-04-11T01:24:20.542Z,100909.59
2023-04-11T01:26:47.041Z,100923.97
2023-04-11T01:29:13.500Z,100908.28
2023-04-11T01:31:39.875Z,100914.41
2023-04-11T01:34:06.299Z,100914.41
2023-04-11T01:36:33.004Z,100923.31
2023-04-11T01:38:59.810Z,100911.69
2023-04-11T01:41:27.528Z,100918.63
2023-04-11T01:43:54.184Z,100926.22
2023-04-11T01:46:21.816Z,100925.91
2023-04-11T01:48:50.544Z,100926.56
2023-04-11T01:51:17.172Z,100930.13
2023-04-11T01:53:45.947Z,100938.03
2023-04-11T01:56:13.144Z,100934.47
2023-04-11T01:58:39.971Z,100946.13
2023-04-11T02:01:06.836Z,100935.63
2023-04-11T02:03:33.445Z,100942.91
2023-04-11T02:05:59.889Z,100944.81
2023-04-11T02:08:26.265Z,100953.88
2023-04-11T02:10:52.643Z,100951.94
2023-04-11T02:13:19.148Z,100957.28
2023-04-11T02:15:45.606Z,100967.13
2023-04-11T02:18:12.092Z,100962.91
2023-04-11T02:20:40.474Z,100972.63
2023-04-11T02:23:07.455Z,100970.50
2023-04-11T02:25:34.263Z,100976.00
2023-04-11T02:28:00.968Z,100966.81
2023-04-11T02:30:27.377Z,100978.75
2023-04-11T02:32:54.019Z,100982.81
2023-04-11T02:35:20.462Z,100977.97
2023-04-11T02:37:46.860Z,100971.19
2023-04-11T02:40:13.243Z,100984.75
2023-04-11T02:42:43.061Z,100967.28
2023-04-11T02:45:10.232Z,100972.78
2023-04-11T02:47:36.609Z,100979.91
2023-04-11T02:50:03.185Z,100979.75
2023-04-11T02:52:29.620Z,100978.63
2023-04-11T02:54:56.098Z,100978.63
2023-04-11T02:57:22.447Z,100981.38
2023-04-11T02:59:48.850Z,100979.75
2023-04-11T03:02:15.488Z,100974.91
2023-04-11T03:04:41.946Z,100976.38
2023-04-11T03:07:08.289Z,100981.84
2023-04-11T03:09:34.708Z,100976.84
2023-04-11T03:12:01.331Z,100985.22
2023-04-11T03:14:27.819Z,100985.06
2023-04-11T03:16:54.225Z,100988.91
2023-04-11T03:19:21.097Z,100990.22
2023-04-11T03:21:47.508Z,100985.06
2023-04-11T03:24:13.896Z,100992.03
2023-04-11T03:26:40.478Z,100988.47
2023-04-11T03:29:06.982Z,100986.50
2023-04-11T03:31:33.545Z,100989.75
2023-04-11T03:33:59.958Z,100993.28
2023-04-11T03:36:29.862Z,100995.41
2023-04-11T03:38:56.421Z,100991.03
2023-04-11T03:41:23.044Z,100993.94
2023-04-11T03:43:49.470Z,101004.91
2023-04-11T03:46:15.922Z,101005.91
2023-04-11T03:48:42.352Z,101007.50
2023-04-11T03:51:08.815Z,101016.56
2023-04-11T03:53:35.227Z,101004.59
2023-04-11T03:56:01.906Z,101010.44
2023-04-11T03:58:28.292Z,101015.09
2023-04-11T04:00:54.742Z,101017.69
2023-04-11T04:03:21.562Z,101025.41
2023-04-11T04:05:48.086Z,101029.13
2023-04-11T04:08:14.713Z,101032.53
2023-04-11T04:10:41.142Z,101037.22
2023-04-11T04:13:07.520Z,101045.63
2023-04-11T04:15:34.186Z,101033.69
2023-04-11T04:18:00.674Z,101033.69
2023-04-11T04:20:27.204Z,101046.78
2023-04-11T04:22:53.842Z,101049.34
2023-04-11T04:25:20.594Z,101040.91
2023-04-11T04:27:47.660Z,101049.97
2023-04-11T04:30:19.042Z,101050.13
2023-04-11T04:32:45.989Z,101062.41
2023-04-11T04:35:14.174Z,101065.28
2023-04-11T04:37:45.589Z,101067.88
2023-04-11T04:40:13.977Z,101069.47
2023-04-11T04:42:44.018Z,101066.56
2023-04-11T04:45:11.303Z,101082.06
2023-04-11T04:47:38.581Z,101088.31
2023-04-11T04:50:05.994Z,101080.50
2023-04-11T04:52:32.456Z,101088.06
2023-04-11T04:54:59.120Z,101086.63
2023-04-11T04:57:27.215Z,101090.31
2023-04-11T04:59:54.857Z,101093.19
2023-04-11T05:02:21.802Z,101096.75
2023-04-11T05:04:51.198Z,101092.53
2023-04-11T05:07:18.261Z,101096.75
2023-04-11T05:09:44.929Z,101112.25
2023-04-11T05:12:11.577Z,101112.91
2023-04-11T05:14:38.061Z,101107.22
2023-04-11T05:17:04.918Z,101117.91
2023-04-11T05:19:32.323Z,101120.63
2023-04-11T05:21:58.849Z,101117.13
2023-04-11T05:24:25.608Z,101115.72
2023-04-11T05:26:52.061Z,101118.16
2023-04-11T05:29:18.497Z,101113.41
2023-04-11T05:31:44.873Z,101120.09
2023-04-11T05:34:11.280Z,101124.28
2023-04-11T05:36:37.714Z,101130.72
2023-04-11T05:39:04.550Z,101129.41
2023-04-11T05:41:31.196Z,101136.44
2023-04-11T05:43:57.742Z,101137.28
2023-04-11T05:46:24.750Z,101147.56
2023-04-11T05:48:51.270Z,101149.09
2023-04-11T05:51:17.682Z,101140.25
2023-04-11T05:53:44.823Z,101150.84
2023-04-11T05:56:12.902Z,101156.47
2023-04-11T05:58:43.035Z,101147.28
2023-04-11T06:01:14.289Z,101154.59
2023-04-11T06:03:40.856Z,101150.63
2023-04-11T06:06:07.923Z,101156.53
2023-04-11T06:08:34.447Z,101153.97
2023-04-11T06:11:00.859Z,101159.75
2023-04-11T06:13:27.345Z,101162.16
2023-04-11T06:15:53.820Z,101153.69
2023-04-11T06:18:20.265Z,101160.88
2023-04-11T06:20:47.114Z,101160.41
2023-04-11T06:23:13.501Z,101160.34
2023-04-11T06:25:40.290Z,101160.31
2023-04-11T06:28:06.688Z,101159.00
2023-04-11T06:30:33.062Z,101171.28
2023-04-11T06:32:59.475Z,101176.16
2023-04-11T06:35:26.084Z,101175.72
2023-04-11T06:37:53.655Z,101179.16
2023-04-11T06:40:20.552Z,101177.09
2023-04-11T06:42:47.578Z,101183.03
2023-04-11T06:45:14.017Z,101177.53
2023-04-11T06:47:40.646Z,101189.25
2023-04-11T06:50:07.824Z,101189.09
2023-04-11T06:52:34.251Z,101189.06
2023-04-11T06:55:00.639Z,101180.06
2023-04-11T06:57:27.073Z,101194.84
2023-04-11T06:59:53.509Z,101194.69
2023-04-11T07:02:20.004Z,101195.63
2023-04-11T07:04:46.662Z,101206.47
2023-04-11T07:07:13.214Z,101204.69
2023-04-11T07:09:39.756Z,101203.34
2023-04-11T07:12:06.317Z,101210.06
2023-04-11T07:14:32.748Z,101211.53
2023-04-11T07:16:59.231Z,101209.00
2023-04-11T07:19:25.648Z,101214.94
2023-04-11T07:21:52.347Z,101222.25
2023-04-11T07:24:19.039Z,101224.34
2023-04-11T07:26:46.550Z,101227.25
2023-04-11T07:29:14.759Z,101233.97
2023-04-11T07:31:41.678Z,101223.31
2023-04-11T07:34:08.284Z,101223.66
2023-04-11T07:36:34.939Z,101221.50
2023-04-11T07:39:01.470Z,101244.16
2023-04-11T07:41:27.903Z,101225.41
2023-04-11T07:43:54.461Z,101232.22
2023-04-11T07:46:21.098Z,101236.25
2023-04-11T07:48:47.496Z,101235.44
2023-04-11T07:51:13.914Z,101229.34
2023-04-11T07:53:40.353Z,101230.09
2023-04-11T07:56:07.143Z,101238.94
2023-04-11T07:58:33.811Z,101247.72
2023-04-11T08:01:02.758Z,101254.28
2023-04-11T08:03:30.081Z,101257.84
2023-04-11T08:05:56.688Z,101274.06
2023-04-11T08:08:23.161Z,101265.75
2023-04-11T08:10:52.113Z,101271.44
2023-04-11T08:13:18.822Z,101277.56
2023-04-11T08:15:45.198Z,101281.91
2023-04-11T08:18:12.226Z,101278.03
2023-04-11T08:20:40.634Z,101284.78
2023-04-11T08:23:08.666Z,101285.22
2023-04-11T08:25:36.468Z,101301.13
2023-04-11T08:28:04.621Z,101289.22
2023-04-11T08:30:31.141Z,101295.03
2023-04-11T08:32:57.977Z,101305.81
2023-04-11T08:35:24.498Z,101299.47
2023-04-11T08:37:50.860Z,101305.78
2023-04-11T08:40:17.541Z,101308.03
2023-04-11T08:42:44.527Z,101307.38
2023-04-11T08:45:11.407Z,101312.72
2023-04-11T08:47:37.971Z,101300.78
2023-04-11T08:50:07.953Z,101316.41
2023-04-11T08:52:35.641Z,101304.50
2023-04-11T08:55:02.123Z,101318.38
2023-04-11T08:57:34.750Z,101318.81
2023-04-11T09:00:19.029Z,101328.84
2023-04-11T09:03:07.777Z,101329.69
2023-04-11T09:05:38.180Z,101328.06
2023-04-11T09:08:09.776Z,101334.50
2023-04-11T09:10:37.799Z,101333.81
2023-04-11T09:13:19.653Z,101340.34
2023-04-11T09:15:46.112Z,101342.88
2023-04-11T09:18:31.606Z,101339.19
2023-04-11T09:21:05.659Z,101338.38
2023-04-11T09:23:32.155Z,101345.84
2023-04-11T09:25:58.604Z,101344.50
2023-04-11T09:28:25.788Z,101346.81
2023-04-11T09:30:54.423Z,101351.69
2023-04-11T09:33:23.443Z,101347.00
2023-04-11T09:35:52.440Z,101341.44
2023-04-11T09:38:36.095Z,101342.28
2023-04-11T09:41:04.364Z,101334.56
2023-04-11T09:43:55.892Z,101345.47
2023-04-11T09:46:22.709Z,101335.06
2023-04-11T09:48:50.445Z,101336.59
2023-04-11T09:51:34.490Z,101346.16
2023-04-11T09:54:03.467Z,101340.78
2023-04-11T09:56:31.137Z,101326.50
2023-04-11T09:58:59.801Z,101346.41
2023-04-11T10:01:26.237Z,101353.88
2023-04-11T10:03:54.061Z,101357.53
2023-04-11T10:07:17.060Z,101349.41
2023-04-11T10:09:45.850Z,101351.88
2023-04-11T10:12:12.341Z,101347.59
2023-04-11T10:14:38.701Z,101349.53
2023-04-11T10:17:19.783Z,101357.53
2023-04-11T10:19:49.253Z,101354.16
2023-04-11T10:22:41.556Z,101362.28
2023-04-11T10:25:21.752Z,101364.78
2023-04-11T10:27:50.057Z,101359.47
2023-04-11T10:30:16.700Z,101350.25
2023-04-11T10:33:13.006Z,101353.41
2023-04-11T10:36:05.992Z,101345.41
2023-04-11T10:38:47.041Z,101350.63
2023-04-11T10:41:34.135Z,101359.25
2023-04-11T10:44:24.685Z,101352.34
2023-04-11T10:46:55.780Z,101363.53
2023-04-11T10:49:37.140Z,101361.13
2023-04-11T10:52:23.678Z,101367.00
2023-04-11T10:54:53.566Z,101361.13
2023-04-11T10:57:21.521Z,101363.50
2023-04-11T10:59:50.883Z,101371.47
2023-04-11T11:02:19.429Z,101369.78
2023-04-11T11:04:46.723Z,101367.22
2023-04-11T11:07:18.758Z,101373.88
2023-04-11T11:09:49.597Z,101364.19
2023-04-11T11:12:17.094Z,101385.28
2023-04-11T11:14:45.724Z,101378.00
2023-04-11T11:17:16.683Z,101382.13
2023-04-11T11:19:44.990Z,101383.56
2023-04-11T11:22:19.007Z,101385.91
2023-04-11T11:24:45.607Z,101378.00
2023-04-11T11:27:22.795Z,101386.16
2023-04-11T11:29:49.896Z,101391.41
2023-04-11T11:32:27.944Z,101398.44
2023-04-11T11:34:55.252Z,101397.19
2023-04-11T11:37:21.871Z,101386.28
2023-04-11T11:39:49.198Z,101392.97
2023-04-11T11:42:16.024Z,101397.19
2023-04-11T11:44:42.738Z,101395.72
2023-04-11T11:47:12.697Z,101399.94
2023-04-11T11:49:51.082Z,101404.69
2023-04-11T11:52:39.675Z,101405.41
2023-04-11T11:55:11.285Z,101406.25
2023-04-11T11:57:43.613Z,101396.00
2023-04-11T12:00:10.896Z,101395.16
2023-04-11T12:02:39.140Z,101400.53
2023-04-11T12:05:07.764Z,101394.53
2023-04-11T12:07:37.197Z,101396.09
2023-04-11T12:10:10.726Z,101408.03
2023-04-11T12:12:41.797Z,101398.06
2023-04-11T12:15:12.867Z,101405.41
2023-04-11T12:17:40.315Z,101407.69
2023-04-11T12:20:08.309Z,101404.22
2023-04-11T12:22:35.259Z,101410.00
2023-04-11T12:25:09.768Z,101421.84
2023-04-11T12:27:37.592Z,101412.19
2023-04-11T12:30:04.524Z,101425.72
2023-04-11T12:32:33.869Z,101416.63
2023-04-11T12:35:01.548Z,101409.13
2023-04-11T12:37:27.949Z,101417.84
2023-04-11T12:39:54.865Z,101414.88
2023-04-11T12:42:26.523Z,101418.13
2023-04-11T12:44:53.764Z,101415.19
2023-04-11T12:47:20.268Z,101420.19
2023-04-11T12:49:46.733Z,101418.50
2023-04-11T12:52:13.119Z,101416.03
2023-04-11T12:54:39.750Z,101407.59
2023-04-11T12:57:07.543Z,101410.78
2023-04-11T12:59:33.988Z,101410.72
2023-04-11T13:02:00.569Z,101408.41
2023-04-11T13:04:27.407Z,101403.84
2023-04-11T13:06:53.904Z,101406.19
2023-04-11T13:09:20.884Z,101406.38
2023-04-11T13:11:47.407Z,101405.91
2023-04-11T13:14:13.790Z,101404.34
2023-04-11T13:16:40.307Z,101402.44
2023-04-11T13:19:06.776Z,101400.88
2023-04-11T13:21:33.385Z,101403.00
2023-04-11T13:23:59.867Z,101389.75
2023-04-11T13:26:26.530Z,101398.19
2023-04-11T13:28:52.968Z,101400.66
2023-04-11T13:31:19.499Z,101404.69
2023-04-11T13:33:47.887Z,101408.13
2023-04-11T13:36:14.369Z,101418.22
2023-04-11T13:38:41.057Z,101411.78
2023-04-11T13:41:07.490Z,101408.97
2023-04-11T13:43:33.923Z,101408.38
2023-04-11T13:46:00.331Z,101408.16
2023-04-11T13:48:26.735Z,101402.13
2023-04-11T13:50:53.171Z,101395.44
2023-04-11T13:53:19.654Z,101397.66
2023-04-11T13:55:48.291Z,101404.09
2023-04-11T13:58:14.724Z,101409.16
2023-04-11T14:00:41.205Z,101400.88
2023-04-11T14:03:07.750Z,101406.31
2023-04-11T14:05:35.617Z,101403.09
2023-04-11T14:08:03.150Z,101397.88
2023-04-11T14:10:29.903Z,101401.09
2023-04-11T14:12:56.319Z,101396.25
2023-04-11T14:15:22.784Z,101392.22
2023-04-11T14:17:49.405Z,101385.56
2023-04-11T14:20:15.852Z,101389.03
2023-04-11T14:22:43.755Z,101391.41
2023-04-11T14:25:11.152Z,101388.19
2023-04-11T14:27:39.398Z,101387.78
2023-04-11T14:30:06.753Z,101385.19
2023-04-11T14:32:33.154Z,101380.53
2023-04-11T14:35:01.908Z,101377.31
2023-04-11T14:37:28.616Z,101380.53
2023-04-11T14:39:55.264Z,101379.69
2023-04-11T14:42:21.775Z,101379.66
2023-04-11T14:44:50.313Z,101377.78
2023-04-11T14:47:17.072Z,101374.41
2023-04-11T14:49:44.004Z,101373.19
2023-04-11T14:52:10.599Z,101374.22
2023-04-11T14:54:37.338Z,101376.06
2023-04-11T14:57:03.884Z,101375.50
2023-04-11T14:59:30.764Z,101376.91
2023-04-11T15:01:57.698Z,101367.44
2023-04-11T15:04:24.264Z,101368.63
2023-04-11T15:06:51.250Z,101368.03
2023-04-11T15:09:20.168Z,101362.41
2023-04-11T15:11:46.971Z,101364.03
2023-04-11T15:14:13.646Z,101356.19
2023-04-11T15:16:40.440Z,101346.31
2023-04-11T15:19:08.940Z,101353.75
2023-04-11T15:21:35.663Z,101340.28
2023-04-11T15:24:07.166Z,101330.41
2023-04-11T15:26:34.198Z,101336.03
2023-04-11T15:29:00.770Z,101326.75
2023-04-11T15:31:27.389Z,101332.63
2023-04-11T15:33:57.050Z,101336.44
2023-04-11T15:36:24.112Z,101331.63
2023-04-11T15:38:50.652Z,101320.72
2023-04-11T15:41:17.242Z,101324.56
2023-04-11T15:43:43.938Z,101317.13
2023-04-11T15:46:10.385Z,101319.31
2023-04-11T15:48:36.841Z,101324.94
2023-04-11T15:51:10.781Z,101317.69
2023-04-11T15:53:37.470Z,101311.25
2023-04-11T15:56:06.052Z,101303.81
2023-04-11T15:58:33.862Z,101304.41
2023-04-11T16:01:01.693Z,101307.84
2023-04-11T16:03:31.726Z,101309.66
2023-04-11T16:05:58.942Z,101306.81
2023-04-11T16:08:28.731Z,101308.63
2023-04-11T16:10:55.454Z,101301.81
2023-04-11T16:13:21.877Z,101300.19
2023-04-11T16:15:48.250Z,101302.84
2023-04-11T16:18:15.847Z,101304.63
2023-04-11T16:20:42.258Z,101304.81
2023-04-11T16:23:08.657Z,101291.16
2023-04-11T16:25:35.101Z,101298.38
2023-04-11T16:28:01.882Z,101301.81
2023-04-11T16:30:28.380Z,101281.69
2023-04-11T16:32:54.808Z,101278.66
2023-04-11T16:35:21.287Z,101282.31
2023-04-11T16:37:47.750Z,101283.09
2023-04-11T16:40:14.395Z,101272.22
2023-04-11T16:42:41.413Z,101277.81
2023-04-11T16:45:09.726Z,101280.38
2023-04-11T16:47:36.407Z,101276.28
2023-04-11T16:50:03.821Z,101284.25
2023-04-11T16:52:30.476Z,101280.38
2023-04-11T16:54:56.903Z,101273.88
2023-04-11T16:57:24.897Z,101281.47
2023-04-11T16:59:51.597Z,101271.75
2023-04-11T17:02:18.343Z,101272.50
2023-04-11T17:04:45.793Z,101261.66
2023-04-11T17:07:12.261Z,101269.22
2023-04-11T17:09:38.724Z,101262.03
2023-04-11T17:12:05.362Z,101256.53
2023-04-11T17:14:31.885Z,101248.00
2023-04-11T17:16:58.371Z,101250.09
2023-04-11T17:19:25.664Z,101251.03
2023-04-11T17:21:52.119Z,101243.69
2023-04-11T17:24:18.509Z,101252.66
2023-04-11T17:26:45.042Z,101246.72
2023-04-11T17:29:11.472Z,101247.84
2023-04-11T17:31:38.415Z,101239.88
2023-04-11T17:34:04.861Z,101244.84
2023-04-11T17:36:31.406Z,101242.78
2023-04-11T17:38:57.931Z,101226.88
2023-04-11T17:41:24.345Z,101224.66
2023-04-11T17:43:50.793Z,101220.63
2023-04-11T17:46:17.353Z,101214.16
2023-04-11T17:48:43.896Z,101213.28
2023-04-11T17:51:10.378Z,101204.53
2023-04-11T17:53:36.975Z,101200.69
2023-04-11T17:56:05.806Z,101202.66
2023-04-11T17:58:32.801Z,101201.78
2023-04-11T18:00:59.579Z,101201.50
2023-04-11T18:03:26.459Z,101192.81
2023-04-11T18:05:54.428Z,101197.13
2023-04-11T18:08:26.026Z,101190.81
2023-04-11T18:10:59.875Z,101193.69
2023-04-11T18:13:27.342Z,101195.41
2023-04-11T18:15:53.906Z,101199.34
2023-04-11T18:18:20.397Z,101195.06
2023-04-11T18:20:46.824Z,101188.13
2023-04-11T18:23:13.259Z,101190.88
2023-04-11T18:25:39.769Z,101185.75
2023-04-11T18:28:06.357Z,101188.06
2023-04-11T18:30:32.770Z,101178.19
2023-04-11T18:32:59.185Z,101183.56
2023-04-11T18:35:25.857Z,101179.88
2023-04-11T18:37:53.336Z,101172.75
2023-04-11T18:40:19.870Z,101165.69
2023-04-11T18:42:51.302Z,101165.22
2023-04-11T18:45:20.661Z,101165.22
2023-04-11T18:47:47.461Z,101166.03
2023-04-11T18:50:17.334Z,101160.38
2023-04-11T18:52:45.077Z,101157.47
2023-04-11T18:55:12.278Z,101153.28
2023-04-11T18:57:38.989Z,101152.00
2023-04-11T19:00:25.080Z,101157.53
2023-04-11T19:02:52.239Z,101149.13
2023-04-11T19:05:19.357Z,101151.38
2023-04-11T19:07:46.536Z,101149.56
2023-04-11T19:10:13.078Z,101140.19
2023-04-11T19:12:41.065Z,101137.75
2023-04-11T19:15:08.970Z,101133.72
2023-04-11T19:17:38.331Z,101130.00
2023-04-11T19:20:06.960Z,101126.75
2023-04-11T19:22:34.572Z,101120.59
2023-04-11T19:25:01.074Z,101121.22
2023-04-11T19:27:27.563Z,101123.19
2023-04-11T19:29:54.106Z,101118.78
2023-04-11T19:32:20.923Z,101117.66
2023-04-11T19:34:49.411Z,101116.00
2023-04-11T19:37:16.598Z,101121.22
2023-04-11T19:39:43.779Z,101115.22
2023-04-11T19:42:10.601Z,101106.63
2023-04-11T19:44:37.665Z,101112.16
2023-04-11T19:47:04.232Z,101108.28
2023-04-11T19:49:30.633Z,101095.03
2023-04-11T19:51:57.050Z,101094.56
2023-04-11T19:54:23.718Z,101090.84
2023-04-11T19:56:52.721Z,101086.00
2023-04-11T19:59:19.376Z,101089.59
2023-04-11T20:01:46.387Z,101074.19
2023-04-11T20:04:13.767Z,101063.31
2023-04-11T20:06:43.902Z,101068.72
2023-04-11T20:09:11.937Z,101059.31
2023-04-11T20:11:39.445Z,101066.28
2023-04-11T20:14:07.576Z,101059.13
2023-04-11T20:16:34.099Z,101057.16
2023-04-11T20:19:01.790Z,101044.03
2023-04-11T20:21:28.490Z,101038.66
2023-04-11T20:23:55.085Z,101038.31
2023-04-11T20:26:21.770Z,101028.72
2023-04-11T20:28:49.677Z,101022.91
2023-04-11T20:31:16.310Z,101019.50
2023-04-11T20:33:44.203Z,101010.09
2023-04-11T20:36:11.293Z,101012.19
2023-04-11T20:38:37.777Z,101005.81
2023-04-11T20:41:05.700Z,100997.22
2023-04-11T20:43:32.249Z,100984.44
2023-04-11T20:45:58.673Z,100981.81
2023-04-11T20:48:26.018Z,100972.91
2023-04-11T20:50:55.807Z,100973.06
2023-04-11T20:53:22.314Z,100964.28
2023-04-11T20:55:48.800Z,100960.09
2023-04-11T20:58:18.489Z,100949.69
2023-04-11T21:00:44.983Z,100942.19
2023-04-11T21:03:11.778Z,100944.78
2023-04-11T21:05:44.293Z,100933.59
2023-04-11T21:08:13.772Z,100931.19
2023-04-11T21:10:40.420Z,100921.94
2023-04-11T21:13:07.483Z,100913.53
2023-04-11T21:15:34.633Z,100916.31
2023-04-11T21:18:01.261Z,100919.09
2023-04-11T21:20:27.763Z,100915.69
2023-04-11T21:22:54.305Z,100905.31
2023-04-11T21:25:21.862Z,100904.66
2023-04-11T21:27:48.330Z,100903.50
2023-04-11T21:30:14.939Z,100892.94
2023-04-11T21:32:41.952Z,100889.91
2023-04-11T21:35:10.422Z,100888.09
2023-04-11T21:37:37.138Z,100886.47
2023-04-11T21:40:03.973Z,100886.66
2023-04-11T21:42:30.730Z,100881.66
2023-04-11T21:44:57.142Z,100880.06
2023-04-11T21:47:23.676Z,100872.44
2023-04-11T21:49:50.383Z,100871.47
2023-04-11T21:52:17.061Z,100865.44
2023-04-11T21:54:43.765Z,100870.03
2023-04-11T21:57:10.938Z,100863.84
2023-04-11T21:59:38.625Z,100861.25
2023-04-11T22:02:05.419Z,100863.03
2023-04-11T22:07:01.166Z,100848.63
2023-04-11T22:09:27.560Z,100857.22
2023-04-11T22:11:53.963Z,100845.41
2023-04-11T22:14:20.430Z,100847.03
2023-04-11T22:16:49.312Z,100846.22
2023-04-11T22:19:19.191Z,100841.56
2023-04-11T22:21:55.489Z,100840.75
2023-04-11T22:24:30.932Z,100828.13
2023-04-11T22:26:58.411Z,100828.50
2023-04-11T22:29:30.392Z,100827.66
2023-04-11T22:31:58.220Z,100823.66
2023-04-11T22:34:25.727Z,100815.44
2023-04-11T22:36:52.942Z,100808.00
2023-04-11T22:39:20.121Z,100801.19
2023-04-11T22:41:50.407Z,100794.75
2023-04-11T22:44:16.972Z,100791.50
2023-04-11T22:46:58.987Z,100777.13
2023-04-11T22:49:25.596Z,100770.66
2023-04-11T22:51:53.307Z,100775.59
2023-04-11T22:54:19.686Z,100772.53
2023-04-11T22:56:48.506Z,100770.31
2023-04-11T22:59:14.929Z,100761.44
2023-04-11T23:01:41.439Z,100750.44
2023-04-11T23:04:08.360Z,100748.38
2023-04-11T23:06:34.824Z,100742.38
2023-04-11T23:09:01.392Z,100741.09
2023-04-11T23:11:27.789Z,100736.94
2023-04-11T23:13:54.474Z,100721.91
2023-04-11T23:16:22.008Z,100724.66
2023-04-11T23:18:48.455Z,100721.63
2023-04-11T23:21:14.950Z,100713.19
2023-04-11T23:23:41.353Z,100709.00
2023-04-11T23:26:09.247Z,100704.19
2023-04-11T23:28:35.647Z,100697.53
2023-04-11T23:31:02.129Z,100688.97
2023-04-11T23:33:28.561Z,100702.91
2023-04-11T23:35:54.998Z,100696.13
2023-04-11T23:38:23.395Z,100688.53
2023-04-11T23:40:50.222Z,100671.53
2023-04-11T23:43:16.864Z,100667.34
2023-04-11T23:45:43.688Z,100673.69
2023-04-11T23:48:10.126Z,100662.88
2023-04-11T23:50:36.766Z,100657.84
2023-04-11T23:53:03.174Z,100651.41
2023-04-11T23:55:29.846Z,100642.38
2023-04-11T23:57:56.552Z,100634.97
